Data for 08/14/2007

Time Sea-Level Adjusted Pressure Absolute Pressure Temperature Relative Humidity Dew Point   
(mb) (inHg) (mb) (inHg) (C) (F) (%) (C) (F)
00:05 1021 30.15 850 25.1 22.3 72.2 25 1.5 34.8
00:10 1021 30.15 851 25.13 22.4 72.3 24 1.1 34.1
00:15 1021 30.15 851 25.13 22.4 72.2 24 1 33.8
00:20 1021 30.15 851 25.13 22.4 72.2 24 0.8 33.4
00:25 1021 30.15 851 25.13 22.4 72.3 24 1 33.9
00:30 1021 30.15 851 25.13 22.3 72.2 24 0.9 33.6
00:35 1021 30.15 851 25.13 22.2 71.9 24 0.8 33.4
00:40 1021 30.15 851 25.13 22 71.5 25 1 33.8
00:45 1022 30.18 851 25.13 21.8 71.2 24 0.8 33.4
00:50 1022 30.18 851 25.13 21.7 71 25 0.8 33.5
00:55 1022 30.18 851 25.13 21.5 70.8 25 0.8 33.5
01:00 1022 30.18 851 25.13 21.4 70.5 25 0.8 33.4
01:05 1022 30.18 851 25.13 21.4 70.4 25 0.8 33.5
01:10 1022 30.18 851 25.13 21.2 70.1 26 1 33.9
01:15 1022 30.18 851 25.13 20.9 69.6 26 0.9 33.7
01:20 1022 30.18 851 25.13 20.8 69.4 26 1 33.7
01:25 1022 30.18 851 25.13 20.7 69.3 26 0.9 33.6
01:30 1022 30.18 851 25.13 20.7 69.2 26 0.9 33.6
01:35 1022 30.18 851 25.13 20.8 69.4 27 1.1 34
01:40 1022 30.18 851 25.13 20.6 69.2 27 1.1 34.1
01:45 1022 30.18 851 25.13 20.6 69.1 27 1.1 34.1
01:50 1022 30.18 851 25.13 20.6 69 27 1.2 34.2
01:55 1022 30.18 851 25.13 20.6 69 27 1.3 34.3
02:00 1022 30.18 851 25.13 20.5 68.9 28 1.5 34.7
02:05 1022 30.18 851 25.13 20.3 68.5 28 1.4 34.6
02:10 1022 30.18 851 25.13 20.2 68.3 28 1.5 34.6
02:15 1022 30.18 851 25.13 20.1 68.3 29 1.5 34.7
02:20 1022 30.18 851 25.13 20 68.1 29 1.5 34.8
02:25 1022 30.18 851 25.13 19.9 67.8 29 1.6 34.9
02:30 1022 30.18 851 25.13 19.8 67.6 30 1.7 35
02:35 1022 30.18 851 25.13 19.7 67.5 30 1.7 35
02:40 1022 30.18 851 25.13 19.4 66.9 31 1.8 35.2
02:45 1022 30.18 851 25.13 19.1 66.4 31 1.8 35.3
02:50 1022 30.18 851 25.13 19 66.1 31 1.7 35.1
02:55 1022 30.18 851 25.13 18.9 65.9 32 1.8 35.2
03:00 1022 30.18 851 25.13 18.8 65.9 32 1.9 35.4
03:05 1022 30.18 851 25.13 18.9 65.9 32 1.9 35.5
03:10 1022 30.18 851 25.13 18.8 65.8 32 1.9 35.4
03:15 1022 30.18 851 25.13 18.7 65.7 32 2 35.6
03:20 1022 30.18 851 25.13 18.6 65.6 33 2.1 35.7
03:25 1022 30.18 851 25.13 18.4 65.2 33 2 35.6
03:30 1022 30.18 851 25.13 18.4 65.2 33 2 35.6
03:35 1022 30.18 851 25.13 18 64.4 35 2.3 36.1
03:40 1022 30.18 852 25.16 18 64.3 34 1.9 35.5
03:45 1022 30.18 852 25.16 18.1 64.6 34 2 35.6
03:50 1022 30.18 852 25.16 18 64.3 42 4.9 40.8
03:55 1022 30.18 852 25.16 17.1 62.9 37 2.6 36.6
04:00 1022 30.18 852 25.16 16.9 62.4 45 4.9 40.8
04:05 1022 30.18 852 25.16 16.6 61.8 39 2.8 37
04:10 1022 30.18 852 25.16 16.2 61.2 41 3 37.4
04:15 1022 30.18 852 25.16 16.2 61.1 40 2.7 36.8
04:20 1022 30.18 852 25.16 16.1 61 41 2.8 37.1
04:25 1022 30.18 852 25.16 16 60.8 41 2.8 37.1
04:30 1022 30.18 852 25.16 15.8 60.4 42 3 37.4
04:35 1022 30.18 852 25.16 15.6 60.1 44 3.3 38
04:40 1022 30.18 852 25.16 15.4 59.8 44 3.3 37.9
04:45 1022 30.18 852 25.16 15.1 59.2 45 3.4 38.1
04:50 1022 30.18 852 25.16 15.2 59.3 44 3 37.4
04:55 1022 30.18 852 25.16 15.6 60 46 4.1 39.3
05:00 1022 30.18 852 25.16 15.6 60.1 41 2.4 36.4
05:05 1022 30.18 852 25.16 15.5 60 42 2.8 37.1
05:10 1022 30.18 852 25.16 15.9 60.6 40 2.3 36.1
05:15 1022 30.18 852 25.16 16.1 60.9 41 2.8 37.1
05:20 1022 30.18 852 25.16 16.2 61.1 38 2.1 35.8
05:25 1023 30.21 852 25.16 16.6 61.9 39 2.6 36.6
05:30 1023 30.21 852 25.16 16.7 62 38 2.3 36.1
05:35 1023 30.21 852 25.16 16.7 62.1 38 2.5 36.6
05:40 1023 30.21 852 25.16 16.5 61.7 47 5.3 41.6
05:45 1023 30.21 852 25.16 16.3 61.3 42 3.4 38
05:50 1023 30.21 852 25.16 15.7 60.2 44 3.4 38.2
05:55 1023 30.21 852 25.16 15.4 59.7 44 3.2 37.8
06:00 1023 30.21 852 25.16 14.9 58.8 46 3.6 38.5
06:05 1023 30.21 852 25.16 14.6 58.3 48 3.7 38.7
06:10 1023 30.21 852 25.16 14.4 58 49 4 39.1
06:15 1023 30.21 852 25.16 14.1 57.4 49 3.7 38.7
06:20 1023 30.21 852 25.16 13.7 56.7 51 3.8 38.8
06:25 1023 30.21 852 25.16 13.5 56.3 51 3.7 38.7
06:30 1023 30.21 852 25.16 13.3 56 53 4.1 39.3
06:35 1023 30.21 852 25.16 12.9 55.2 53 3.7 38.7
06:40 1023 30.21 852 25.16 12.8 55.1 54 3.7 38.7
06:45 1023 30.21 852 25.16 12.9 55.1 54 3.8 38.8
06:50 1023 30.21 852 25.16 12.8 55 54 3.8 38.8
06:55 1023 30.21 852 25.16 12.4 54.4 54 3.6 38.4
07:00 1023 30.21 852 25.16 12.5 54.4 54 3.4 38.2
07:05 1023 30.21 853 25.19 12.7 54.9 53 3.5 38.4
07:10 1023 30.21 853 25.19 12.8 55 53 3.5 38.4
07:15 1023 30.21 852 25.16 12.8 55.1 53 3.6 38.6
07:20 1023 30.21 852 25.16 12.8 55 53 3.5 38.4
07:25 1023 30.21 852 25.16 12.5 54.5 54 3.6 38.4
07:30 1023 30.21 852 25.16 12.5 54.4 52 3 37.3
07:35 1023 30.21 852 25.16 13.1 55.6 50 2.9 37.2
07:40 1023 30.21 853 25.19 13.5 56.3 49 3.2 37.8
07:45 1023 30.21 853 25.19 13.5 56.2 51 3.6 38.6
07:50 1023 30.21 853 25.19 13.3 56 52 3.7 38.7
07:55 1023 30.21 853 25.19 13.4 56.1 53 4.2 39.6
08:00 1023 30.21 853 25.19 13.4 56.1 54 4.4 39.9
08:05 1023 30.21 853 25.19 13.5 56.4 55 4.7 40.4
08:10 1023 30.21 853 25.19 13.7 56.7 51 3.8 38.9
08:15 1023 30.21 853 25.19 14.1 57.3 49 3.5 38.4
08:20 1023 30.21 853 25.19 14.3 57.7 49 3.8 38.8
08:25 1023 30.21 853 25.19 14.3 57.7 50 4.2 39.5
08:30 1023 30.21 853 25.19 14.4 57.8 51 4.4 40
08:35 1023 30.21 853 25.19 14.6 58.3 52 4.9 40.9
08:40 1023 30.21 853 25.19 14.8 58.6 52 5.2 41.4
08:45 1023 30.21 853 25.19 15.2 59.4 52 5.4 41.8
08:50 1023 30.21 853 25.19 15.7 60.2 49 5 40.9
08:55 1023 30.21 853 25.19 16.1 61.1 46 4.8 40.6
09:00 1023 30.21 853 25.19 16.7 62.1 45 4.9 40.8
09:05 1023 30.21 853 25.19 16.9 62.4 47 5.5 41.8
09:10 1023 30.21 853 25.19 16.9 62.4 46 5.3 41.5
09:15 1023 30.21 853 25.19 17 62.5 47 5.8 42.4
09:20 1023 30.21 853 25.19 17.2 62.9 47 5.9 42.6
09:25 1023 30.21 853 25.19 17.2 63 46 5.5 41.9
09:30 1023 30.21 853 25.19 17.5 63.5 43 4.7 40.5
09:35 1023 30.21 853 25.19 17.6 63.7 44 5.4 41.8
09:40 1023 30.21 853 25.19 18.5 65.3 40 4.7 40.5
09:45 1023 30.21 852 25.16 18.3 65 41 4.8 40.7
09:50 1023 30.21 853 25.19 18.6 65.5 40 5 41
09:55 1023 30.21 852 25.16 18.7 65.7 39 4.7 40.4
10:00 1023 30.21 852 25.16 19.2 66.6 39 4.9 40.9
10:05 1023 30.21 852 25.16 19.8 67.7 37 4.7 40.4
10:10 1023 30.21 852 25.16 19.9 67.9 34 3.8 38.8
10:15 1023 30.21 852 25.16 20.7 69.3 34 4.3 39.8
10:20 1023 30.21 852 25.16 21.6 70.8 33 5 40.9
10:25 1023 30.21 852 25.16 20.9 69.5 35 4.9 40.9
10:30 1023 30.21 852 25.16 20.1 68.1 36 4.5 40.2
10:35 1023 30.21 852 25.16 21 69.8 34 4.7 40.4
10:40 1023 30.21 852 25.16 21.8 71.2 31 4.1 39.3
10:45 1023 30.21 852 25.16 21.3 70.4 33 4.4 40
10:50 1023 30.21 852 25.16 21.6 70.8 33 4.7 40.5
10:55 1023 30.21 852 25.16 20.9 69.6 35 4.9 40.8
11:00 1023 30.21 852 25.16 21.1 69.9 34 4.6 40.2
11:05 1023 30.21 852 25.16 22.3 72.2 30 3.9 39
11:10 1023 30.21 852 25.16 22.5 72.6 31 4.8 40.6
11:15 1023 30.21 852 25.16 22.5 72.6 32 5.3 41.5
11:20 1023 30.21 852 25.16 22 71.5 33 5.1 41.2
11:25 1023 30.21 852 25.16 21.6 70.8 33 4.9 40.8
11:30 1023 30.21 852 25.16 21.2 70.1 34 4.8 40.6
11:35 1023 30.21 852 25.16 22.4 72.2 31 4.7 40.5
11:40 1023 30.21 852 25.16 22.4 72.4 32 5.2 41.4
11:45 1022 30.18 852 25.16 22.2 72 32 4.8 40.7
11:50 1023 30.21 852 25.16 23.2 73.8 30 5 41
11:55 1023 30.21 852 25.16 23.9 74.9 30 5.5 41.9
12:00 1022 30.18 852 25.16 23.9 74.9 30 5.5 42
12:05 1022 30.18 852 25.16 23.5 74.3 31 5.8 42.4
12:10 1022 30.18 851 25.13 24.1 75.4 28 4.9 40.8
12:15 1022 30.18 851 25.13 24.7 76.4 28 5.2 41.4
12:20 1022 30.18 851 25.13 24.8 76.7 29 5.7 42.2
12:25 1022 30.18 851 25.13 25.1 77.3 27 5.3 41.5
12:30 1022 30.18 851 25.13 25.1 77.1 28 5.6 42.1
12:35 1022 30.18 851 25.13 25.5 77.9 27 5.3 41.5
12:40 1022 30.18 851 25.13 24.9 76.8 26 4.3 39.7
12:45 1022 30.18 851 25.13 25.4 77.7 25 4 39.2
12:50 1022 30.18 851 25.13 25.8 78.5 25 4.4 39.9
12:55 1022 30.18 851 25.13 26.5 79.6 24 4.5 40.2
13:00 1022 30.18 851 25.13 26.6 79.8 25 5 41
13:05 1022 30.18 851 25.13 26.7 80 24 4.9 40.8
13:10 1022 30.18 851 25.13 27.1 80.7 24 5.1 41.1
13:15 1022 30.18 851 25.13 26.6 79.8 22 3.7 38.6
13:20 1021 30.15 851 25.13 25.8 78.4 25 4.4 39.9
13:25 1021 30.15 850 25.1 26.6 79.8 24 4.4 40
13:30 1021 30.15 850 25.1 27 80.5 22 4 39.1
13:35 1021 30.15 850 25.1 26.6 79.9 24 4.4 39.9
13:40 1021 30.15 850 25.1 27.1 80.7 23 4.6 40.2
13:45 1021 30.15 850 25.1 27.1 80.8 23 4.4 39.8
13:50 1021 30.15 850 25.1 27 80.5 25 5.3 41.5
13:55 1021 30.15 850 25.1 27.2 81 24 4.9 40.8
14:00 1021 30.15 850 25.1 27.2 81 22 4.2 39.5
14:05 1020 30.12 850 25.1 27.7 81.8 22 4.5 40.1
14:10 1020 30.12 850 25.1 28 82.4 24 6.2 43.1
14:15 1020 30.12 850 25.1 27.8 82.1 22 4.7 40.5
14:20 1020 30.12 850 25.1 27.9 82.2 23 4.9 40.8
14:25 1020 30.12 850 25.1 28.3 83 22 4.9 40.8
14:30 1020 30.12 850 25.1 28.6 83.5 20 4 39.2
14:35 1020 30.12 849 25.07 28.9 84 21 4.7 40.5
14:40 1020 30.12 849 25.07 28.2 82.8 23 5.4 41.8
14:45 1020 30.12 849 25.07 28.4 83.1 21 4.5 40
14:50 1020 30.12 849 25.07 28.7 83.7 21 4.6 40.3
14:55 1020 30.12 849 25.07 29 84.2 21 5.1 41.2
15:00 1020 30.12 849 25.07 28.8 83.9 21 4.4 39.8
15:05 1020 30.12 849 25.07 28.8 83.9 21 4.5 40.2
15:10 1020 30.12 849 25.07 29.1 84.5 19 3.8 38.9
15:15 1020 30.12 849 25.07 29.5 85.2 19 4 39.3
15:20 1020 30.12 849 25.07 29.5 85.2 18 2.9 37.2
15:25 1020 30.12 849 25.07 29.4 84.9 19 3.9 39.1
15:30 1020 30.12 849 25.07 28.9 84.1 21 5 40.9
15:35 1020 30.12 849 25.07 28.5 83.2 20 3.4 38.2
15:40 1020 30.12 849 25.07 29.4 84.8 19 3.3 38
15:45 1020 30.12 849 25.07 29.9 85.7 18 3 37.5
15:50 1019 30.09 849 25.07 29.7 85.5 19 4 39.2
15:55 1019 30.09 849 25.07 30 85.9 17 2.3 36.1
16:00 1019 30.09 849 25.07 30.5 86.8 15 1.6 34.8
16:05 1019 30.09 848 25.04 29.9 85.9 15 0.5 32.8
16:10 1019 30.09 848 25.04 29.2 84.6 15 0.3 32.5
16:15 1019 30.09 849 25.07 29.4 84.8 14 -0.3 31.5
16:20 1019 30.09 849 25.07 29.2 84.6 15 0.1 32.1
16:25 1019 30.09 849 25.07 29.5 85.1 15 0.9 33.6
16:30 1019 30.09 848 25.04 30.1 86.2 15 1.4 34.5
16:35 1019 30.09 848 25.04 30.1 86.3 12 -2.6 27.3
16:40 1019 30.09 848 25.04 29.7 85.4 13 -0.9 30.3
16:45 1019 30.09 848 25.04 30.2 86.4 11 -3.1 26.4
16:50 1019 30.09 848 25.04 31.3 88.3 11 -1.9 28.5
16:55 1019 30.09 848 25.04 31.6 88.8 10 -2.8 26.9
17:00 1019 30.09 848 25.04 31.1 87.9 12 -1.8 28.7
17:05 1019 30.09 848 25.04 30.5 86.9 11 -3 26.6
17:10 1019 30.09 848 25.04 30.1 86.2 11 -3.4 25.9
17:15 1019 30.09 848 25.04 30 85.9 11 -3.9 25
17:20 1019 30.09 848 25.04 29.7 85.5 11 -3.4 25.9
17:25 1019 30.09 848 25.04 29.9 85.8 11 -3.4 25.9
17:30 1019 30.09 848 25.04 29.9 85.8 11 -3.7 25.4
17:35 1019 30.09 848 25.04 29.8 85.6 11 -3 26.5
17:40 1019 30.09 848 25.04 29.8 85.6 12 -2.4 27.8
17:45 1019 30.09 848 25.04 29.4 84.8 15 -0 32
17:50 1019 30.09 848 25.04 28.6 83.5 16 0.6 33.1
17:55 1019 30.09 848 25.04 28.7 83.6 11 -4.3 24.3
18:00 1018 30.06 848 25.04 28.7 83.6 10 -5.1 22.9
18:05 1018 30.06 848 25.04 28.5 83.3 13 -2.3 27.9
18:10 1018 30.06 848 25.04 28.5 83.3 13 -2.3 27.9
18:15 1018 30.06 848 25.04 28.7 83.6 11 -3.9 24.9
18:20 1018 30.06 848 25.04 28.5 83.3 12 -3.9 25
18:25 1018 30.06 847 25.01 28.5 83.4 11 -4.9 23.2
18:30 1018 30.06 847 25.01 28.8 83.9 11 -4.2 24.4
18:35 1018 30.06 847 25.01 29 84.3 11 -3.5 25.7
18:40 1018 30.06 847 25.01 28.8 83.8 13 -1.8 28.8
18:45 1018 30.06 847 25.01 28.6 83.4 12 -3.7 25.4
18:50 1018 30.06 847 25.01 28.5 83.2 13 -2.4 27.6
18:55 1018 30.06 847 25.01 28.3 83 13 -2.6 27.4
19:00 1018 30.06 847 25.01 28.2 82.8 12 -3.6 25.5
19:05 1018 30.06 847 25.01 28.2 82.7 10 -5.7 21.8
19:10 1018 30.06 847 25.01 28.2 82.8 11 -5.3 22.5
19:15 1018 30.06 847 25.01 28.2 82.8 11 -4.5 23.9
19:20 1018 30.06 847 25.01 28.2 82.8 11 -4.7 23.6
19:25 1018 30.06 847 25.01 28.1 82.5 21 4.1 39.4
19:30 1018 30.06 847 25.01 26.8 80.2 23 4 39.2
19:35 1018 30.06 847 25.01 26.1 78.9 26 5.1 41.3
19:40 1018 30.06 847 25.01 25.8 78.4 25 4.5 40.1
19:45 1018 30.06 847 25.01 25.5 77.9 25 4.2 39.6
19:50 1018 30.06 847 25.01 25.4 77.7 26 4.5 40.1
19:55 1018 30.06 847 25.01 25.5 77.9 25 4.1 39.4
20:00 1018 30.06 847 25.01 25.3 77.6 25 4 39.1
20:05 1018 30.06 847 25.01 24.9 76.8 30 6.6 43.9
20:10 1018 30.06 847 25.01 24.1 75.3 28 4.8 40.6
20:15 1018 30.06 847 25.01 23.7 74.7 26 3.4 38.1
20:20 1018 30.06 847 25.01 23.4 74.1 33 6.3 43.4
20:25 1018 30.06 847 25.01 22.9 73.3 30 4.6 40.3
20:30 1018 30.06 847 25.01 22.6 72.8 29 4 39.2
20:35 1018 30.06 847 25.01 22.5 72.5 30 4.5 40
20:40 1018 30.06 847 25.01 22.3 72.1 33 5.4 41.7
20:45 1018 30.06 847 25.01 22.2 71.9 28 3 37.5
20:50 1018 30.06 847 25.01 22.2 72 30 4.2 39.6
20:55 1018 30.06 847 25.01 21.9 71.3 33 5.1 41.2
21:00 1018 30.06 847 25.01 21.4 70.5 29 2.8 37
21:05 1018 30.06 847 25.01 21.4 70.4 28 2.4 36.2
21:10 1018 30.06 847 25.01 21.6 70.9 24 0.7 33.2
21:15 1018 30.06 847 25.01 22.2 71.9 26 1.8 35.2
21:20 1018 30.06 847 25.01 22 71.6 26 2.1 35.7
21:25 1018 30.06 847 25.01 21.7 71.1 26 1.8 35.2
21:30 1018 30.06 847 25.01 21.6 70.9 25 1.1 34
21:35 1018 30.06 847 25.01 21.8 71.2 25 1.1 34
21:40 1018 30.06 847 25.01 21.5 70.8 26 1.6 34.8
21:45 1018 30.06 847 25.01 21.5 70.8 26 1.4 34.5
21:50 1018 30.06 847 25.01 21.5 70.7 26 1.3 34.3
21:55 1018 30.06 847 25.01 21.5 70.6 25 0.9 33.6
22:00 1018 30.06 847 25.01 21.4 70.4 25 0.9 33.6
22:05 1018 30.06 847 25.01 21.2 70.1 26 1.2 34.2
22:10 1018 30.06 847 25.01 21 69.7 26 0.8 33.4
22:15 1018 30.06 847 25.01 21 69.9 25 0.6 33.1
22:20 1018 30.06 847 25.01 21 69.8 27 1.3 34.3
22:25 1018 30.06 847 25.01 20.9 69.6 26 0.9 33.7
22:30 1018 30.06 847 25.01 21.2 70.1 25 0.5 33
22:35 1018 30.06 847 25.01 21.2 70.1 26 1 33.9
22:40 1018 30.06 847 25.01 21.3 70.4 26 1.1 33.9
22:45 1018 30.06 847 25.01 21.2 70.2 27 1.6 35
22:50 1018 30.06 847 25.01 20.8 69.4 28 1.6 34.8
22:55 1018 30.06 847 25.01 20.6 69.1 27 1.3 34.3
23:00 1018 30.06 847 25.01 20.7 69.2 27 1.1 34
23:05 1018 30.06 848 25.04 20.4 68.7 29 1.7 35.1
23:10 1018 30.06 848 25.04 20.3 68.6 27 1.1 34
23:15 1018 30.06 848 25.04 20.2 68.4 32 3 37.4
23:20 1018 30.06 848 25.04 20.3 68.6 28 1.4 34.6
23:25 1018 30.06 848 25.04 20.3 68.5 30 2.2 36
23:30 1018 30.06 848 25.04 20.2 68.3 29 1.5 34.8
23:35 1018 30.06 848 25.04 19.9 67.8 33 3.4 38.2
23:40 1018 30.06 848 25.04 19.9 67.8 28 1.2 34.1
23:45 1018 30.06 848 25.04 19.7 67.5 33 3.1 37.6
23:50 1018 30.06 848 25.04 19.2 66.6 34 3.3 38
23:55 1018 30.06 848 25.04 18.3 64.9 36 2.9 37.2
24:00 1018 30.06 848 25.04 18.1 64.5 37 3.4 38